createdAt,value
2024-03-21T00:00:17.361Z,644.00
2024-03-21T00:01:17.353Z,644.00
2024-03-21T00:02:17.374Z,631.00
2024-03-21T00:03:17.463Z,637.00
2024-03-21T00:04:17.435Z,629.00
2024-03-21T00:05:17.490Z,634.00
2024-03-21T00:06:17.529Z,652.00
2024-03-21T00:07:17.587Z,642.00
2024-03-21T00:08:19.583Z,634.00
2024-03-21T00:09:17.603Z,634.00
2024-03-21T00:10:17.615Z,636.00
2024-03-21T00:11:17.622Z,635.00
2024-03-21T00:12:17.573Z,643.00
2024-03-21T00:13:17.622Z,644.00
2024-03-21T00:14:17.645Z,658.00
2024-03-21T00:15:17.583Z,650.00
2024-03-21T00:16:17.582Z,661.00
2024-03-21T00:17:17.679Z,644.00
2024-03-21T00:18:17.574Z,634.00
2024-03-21T00:19:17.616Z,637.00
2024-03-21T00:20:17.627Z,627.00
2024-03-21T00:21:17.594Z,635.00
2024-03-21T00:22:17.607Z,618.00
2024-03-21T00:23:17.631Z,626.00
2024-03-21T00:24:17.613Z,618.00
2024-03-21T00:25:17.619Z,623.00
2024-03-21T00:26:17.623Z,617.00
2024-03-21T00:27:17.596Z,607.00
2024-03-21T00:28:17.588Z,610.00
2024-03-21T00:29:17.644Z,603.00
2024-03-21T00:30:17.594Z,598.00
2024-03-21T00:31:17.615Z,607.00
2024-03-21T00:32:17.615Z,595.00
2024-03-21T00:33:17.599Z,600.00
2024-03-21T00:34:17.597Z,606.00
2024-03-21T00:35:17.625Z,600.00
2024-03-21T00:36:17.630Z,600.00
2024-03-21T00:37:17.635Z,606.00
2024-03-21T00:38:17.727Z,614.00
2024-03-21T00:39:17.626Z,602.00
2024-03-21T00:40:17.627Z,603.00
2024-03-21T00:41:17.630Z,599.00
2024-03-21T00:42:17.625Z,606.00
2024-03-21T00:43:17.585Z,603.00
2024-03-21T00:44:17.631Z,608.00
2024-03-21T00:45:17.584Z,608.00
2024-03-21T00:46:17.590Z,605.00
2024-03-21T00:47:17.665Z,616.00
2024-03-21T00:48:17.680Z,616.00
2024-03-21T00:49:17.783Z,612.00
2024-03-21T00:50:17.940Z,632.00
2024-03-21T00:51:17.835Z,634.00
2024-03-21T00:52:17.895Z,637.00
2024-03-21T00:53:17.944Z,631.00
2024-03-21T00:54:18.016Z,648.00
2024-03-21T00:55:18.001Z,658.00
2024-03-21T00:56:18.076Z,653.00
2024-03-21T00:57:18.125Z,650.00
2024-03-21T00:58:18.158Z,647.00
2024-03-21T00:59:18.238Z,643.00
2024-03-21T01:00:18.269Z,655.00
2024-03-21T01:01:18.300Z,653.00
2024-03-21T01:02:18.309Z,644.00
2024-03-21T01:03:18.354Z,646.00
2024-03-21T01:04:18.416Z,644.00
2024-03-21T01:05:18.447Z,633.00
2024-03-21T01:06:18.496Z,639.00
2024-03-21T01:07:18.535Z,624.00
2024-03-21T01:08:18.557Z,642.00
2024-03-21T01:09:18.615Z,636.00
2024-03-21T01:10:18.656Z,652.00
2024-03-21T01:11:18.770Z,649.00
2024-03-21T01:12:18.740Z,650.00
2024-03-21T01:13:18.810Z,651.00
2024-03-21T01:14:18.858Z,648.00
2024-03-21T01:15:18.865Z,652.00
2024-03-21T01:16:18.901Z,645.00
2024-03-21T01:17:18.950Z,636.00
2024-03-21T01:18:19.002Z,640.00
2024-03-21T01:19:19.090Z,644.00
2024-03-21T01:20:19.123Z,640.00
2024-03-21T01:21:19.212Z,644.00
2024-03-21T01:22:19.213Z,642.00
2024-03-21T01:23:19.268Z,635.00
2024-03-21T01:24:19.330Z,639.00
2024-03-21T01:25:19.398Z,640.00
2024-03-21T01:26:19.428Z,631.00
2024-03-21T01:27:21.668Z,629.00
2024-03-21T01:28:19.477Z,633.00
2024-03-21T01:29:19.467Z,633.00
2024-03-21T01:30:19.479Z,618.00
2024-03-21T01:31:19.477Z,614.00
2024-03-21T01:32:19.434Z,617.00
2024-03-21T01:33:19.447Z,609.00
2024-03-21T01:34:19.502Z,604.00
2024-03-21T01:35:19.466Z,599.00
2024-03-21T01:36:19.475Z,595.00
2024-03-21T01:37:19.456Z,598.00
2024-03-21T01:38:19.570Z,604.00
2024-03-21T01:39:19.457Z,607.00
2024-03-21T01:40:19.487Z,606.00
2024-03-21T01:41:19.483Z,600.00
2024-03-21T01:42:19.493Z,609.00
2024-03-21T01:43:19.463Z,612.00
2024-03-21T01:44:19.504Z,618.00
2024-03-21T01:45:19.479Z,614.00
2024-03-21T01:46:20.292Z,611.00
2024-03-21T01:47:19.473Z,614.00
2024-03-21T01:48:19.498Z,622.00
2024-03-21T01:49:19.495Z,609.00
2024-03-21T01:50:19.494Z,612.00
2024-03-21T01:51:19.511Z,611.00
2024-03-21T01:52:19.522Z,613.00
2024-03-21T01:53:19.497Z,608.00
2024-03-21T01:54:19.470Z,610.00
2024-03-21T01:55:19.513Z,615.00
2024-03-21T01:56:19.493Z,618.00
2024-03-21T01:57:19.495Z,614.00
2024-03-21T01:58:19.479Z,619.00
2024-03-21T01:59:19.501Z,613.00
2024-03-21T02:00:19.507Z,608.00
2024-03-21T02:01:19.485Z,622.00
2024-03-21T02:02:19.493Z,619.00
2024-03-21T02:03:19.534Z,609.00
2024-03-21T02:04:19.525Z,608.00
2024-03-21T02:05:19.534Z,605.00
2024-03-21T02:06:19.476Z,606.00
2024-03-21T02:07:19.517Z,607.00
2024-03-21T02:08:19.537Z,613.00
2024-03-21T02:09:20.296Z,623.00
2024-03-21T02:10:19.511Z,630.00
2024-03-21T02:11:19.556Z,631.00
2024-03-21T02:12:19.590Z,640.00
2024-03-21T02:13:19.684Z,646.00
2024-03-21T02:14:19.718Z,636.00
2024-03-21T02:15:19.778Z,634.00
2024-03-21T02:16:19.815Z,631.00
2024-03-21T02:17:19.889Z,629.00
2024-03-21T02:18:19.930Z,633.00
2024-03-21T02:19:20.010Z,629.00
2024-03-21T02:20:20.038Z,621.00
2024-03-21T02:21:20.145Z,618.00
2024-03-21T02:22:20.171Z,625.00
2024-03-21T02:23:20.243Z,620.00
2024-03-21T02:24:20.282Z,615.00
2024-03-21T02:25:20.366Z,600.00
2024-03-21T02:26:20.392Z,605.00
2024-03-21T02:27:20.513Z,612.00
2024-03-21T02:28:20.509Z,603.00
2024-03-21T02:29:20.585Z,600.00
2024-03-21T02:30:20.598Z,604.00
2024-03-21T02:31:20.659Z,604.00
2024-03-21T02:32:20.701Z,601.00
2024-03-21T02:33:20.753Z,613.00
2024-03-21T02:34:20.811Z,611.00
2024-03-21T02:35:20.869Z,600.00
2024-03-21T02:36:20.948Z,612.00
2024-03-21T02:37:21.000Z,610.00
2024-03-21T02:38:21.051Z,608.00
2024-03-21T02:39:21.094Z,610.00
2024-03-21T02:40:21.141Z,608.00
2024-03-21T02:41:21.174Z,615.00
2024-03-21T02:42:21.221Z,612.00
2024-03-21T02:43:21.236Z,617.00
2024-03-21T02:44:21.316Z,611.00
2024-03-21T02:45:21.337Z,610.00
2024-03-21T02:46:23.509Z,604.00
2024-03-21T02:47:21.431Z,622.00
2024-03-21T02:48:21.400Z,621.00
2024-03-21T02:49:21.858Z,627.00
2024-03-21T02:50:21.389Z,625.00
2024-03-21T02:51:21.384Z,629.00
2024-03-21T02:52:21.391Z,628.00
2024-03-21T02:53:21.398Z,641.00
2024-03-21T02:54:21.402Z,643.00
2024-03-21T02:55:21.411Z,649.00
2024-03-21T02:56:21.431Z,658.00
2024-03-21T02:57:21.456Z,652.00
2024-03-21T02:58:21.401Z,663.00
2024-03-21T02:59:21.471Z,650.00
2024-03-21T03:00:21.395Z,644.00
2024-03-21T03:01:21.401Z,642.00
2024-03-21T03:02:21.413Z,645.00
2024-03-21T03:03:21.419Z,655.00
2024-03-21T03:04:21.436Z,675.00
2024-03-21T03:05:21.439Z,660.00
2024-03-21T03:06:21.437Z,655.00
2024-03-21T03:07:21.503Z,661.00
2024-03-21T03:08:21.453Z,655.00
2024-03-21T03:09:21.458Z,659.00
2024-03-21T03:10:21.432Z,656.00
2024-03-21T03:11:21.418Z,649.00
2024-03-21T03:12:21.422Z,658.00
2024-03-21T03:13:21.434Z,664.00
2024-03-21T03:14:21.435Z,648.00
2024-03-21T03:15:21.450Z,654.00
2024-03-21T03:16:21.427Z,644.00
2024-03-21T03:17:21.490Z,641.00
2024-03-21T03:18:21.435Z,652.00
2024-03-21T03:19:21.480Z,652.00
2024-03-21T03:20:21.427Z,655.00
2024-03-21T03:21:21.448Z,648.00
2024-03-21T03:22:21.464Z,645.00
2024-03-21T03:23:21.483Z,647.00
2024-03-21T03:24:21.473Z,655.00
2024-03-21T03:25:21.498Z,644.00
2024-03-21T03:26:21.520Z,645.00
2024-03-21T03:27:21.632Z,658.00
2024-03-21T03:28:21.637Z,647.00
2024-03-21T03:29:21.693Z,648.00
2024-03-21T03:30:21.756Z,652.00
2024-03-21T03:31:21.809Z,650.00
2024-03-21T03:32:21.850Z,641.00
2024-03-21T03:33:21.887Z,640.00
2024-03-21T03:34:21.953Z,637.00
2024-03-21T03:35:21.994Z,634.00
2024-03-21T03:36:22.117Z,624.00
2024-03-21T03:37:22.160Z,627.00
2024-03-21T03:38:22.225Z,629.00
2024-03-21T03:39:22.250Z,635.00
2024-03-21T03:40:22.392Z,635.00
2024-03-21T03:41:22.359Z,641.00
2024-03-21T03:42:22.459Z,639.00
2024-03-21T03:43:22.460Z,648.00
2024-03-21T03:44:22.569Z,652.00
2024-03-21T03:45:22.591Z,644.00
2024-03-21T03:46:22.641Z,649.00
2024-03-21T03:47:22.697Z,648.00
2024-03-21T03:48:22.760Z,645.00
2024-03-21T03:49:22.812Z,642.00
2024-03-21T03:50:22.838Z,635.00
2024-03-21T03:51:22.925Z,631.00
2024-03-21T03:52:22.949Z,632.00
2024-03-21T03:53:23.042Z,643.00
2024-03-21T03:54:23.113Z,647.00
2024-03-21T03:55:23.164Z,645.00
2024-03-21T03:56:23.216Z,645.00
2024-03-21T03:57:23.276Z,653.00
2024-03-21T03:58:23.337Z,646.00
2024-03-21T03:59:23.389Z,651.00
2024-03-21T04:00:23.412Z,654.00
2024-03-21T04:01:23.502Z,656.00
2024-03-21T04:02:23.564Z,647.00
2024-03-21T04:03:23.617Z,649.00
2024-03-21T04:04:23.692Z,634.00
2024-03-21T04:05:23.709Z,644.00
2024-03-21T04:06:23.826Z,635.00
2024-03-21T04:07:23.864Z,640.00
2024-03-21T04:08:23.917Z,635.00
2024-03-21T04:09:23.969Z,633.00
2024-03-21T04:10:24.029Z,636.00
2024-03-21T04:11:24.080Z,638.00
2024-03-21T04:12:24.154Z,642.00
2024-03-21T04:13:24.200Z,637.00
2024-03-21T04:14:24.266Z,636.00
2024-03-21T04:15:24.313Z,650.00
2024-03-21T04:16:24.371Z,654.00
2024-03-21T04:17:24.433Z,660.00
2024-03-21T04:18:24.491Z,648.00
2024-03-21T04:19:24.533Z,645.00
2024-03-21T04:20:24.568Z,647.00
2024-03-21T04:21:24.632Z,649.00
2024-03-21T04:22:24.677Z,648.00
2024-03-21T04:23:24.756Z,642.00
2024-03-21T04:24:24.841Z,646.00
2024-03-21T04:25:24.903Z,645.00
2024-03-21T04:26:24.969Z,647.00
2024-03-21T04:27:25.009Z,644.00
2024-03-21T04:28:25.068Z,636.00
2024-03-21T04:29:25.130Z,637.00
2024-03-21T04:30:25.178Z,638.00
2024-03-21T04:31:25.852Z,626.00
2024-03-21T04:32:25.306Z,621.00
2024-03-21T04:33:25.358Z,620.00
2024-03-21T04:34:32.661Z,600.00
2024-03-21T04:35:32.618Z,600.00
2024-03-21T04:36:32.626Z,600.00
2024-03-21T04:37:32.611Z,600.00
2024-03-21T04:38:45.403Z,600.00
2024-03-21T04:39:33.631Z,600.00
2024-03-21T04:40:32.627Z,600.00
2024-03-21T04:41:32.647Z,600.00
2024-03-21T04:42:32.637Z,600.00
2024-03-21T04:43:32.613Z,600.00
2024-03-21T04:44:32.647Z,608.00
2024-03-21T04:45:32.641Z,609.00
2024-03-21T04:46:32.640Z,613.00
2024-03-21T04:47:32.632Z,600.00
2024-03-21T04:48:32.627Z,615.00
2024-03-21T04:49:32.665Z,614.00
2024-03-21T04:50:32.704Z,627.00
2024-03-21T04:51:32.762Z,616.00
2024-03-21T04:52:32.816Z,612.00
2024-03-21T04:53:32.892Z,623.00
2024-03-21T04:54:32.930Z,623.00
2024-03-21T04:55:33.027Z,625.00
2024-03-21T04:56:33.048Z,622.00
2024-03-21T04:57:33.159Z,621.00
2024-03-21T04:58:33.158Z,611.00
2024-03-21T04:59:33.232Z,609.00
2024-03-21T05:00:33.288Z,608.00
2024-03-21T05:01:33.355Z,616.00
2024-03-21T05:02:33.451Z,606.00
2024-03-21T05:03:33.473Z,617.00
2024-03-21T05:04:33.532Z,610.00
2024-03-21T05:05:33.583Z,613.00
2024-03-21T05:06:33.667Z,616.00
2024-03-21T05:07:33.738Z,616.00
2024-03-21T05:08:33.762Z,600.00
2024-03-21T05:09:33.849Z,615.00
2024-03-21T05:10:33.911Z,603.00
2024-03-21T05:11:34.023Z,613.00
2024-03-21T05:12:34.084Z,618.00
2024-03-21T05:13:34.135Z,604.00
2024-03-21T05:14:34.200Z,609.00
2024-03-21T05:15:34.256Z,615.00
2024-03-21T05:16:34.359Z,611.00
2024-03-21T05:17:34.445Z,618.00
2024-03-21T05:18:34.475Z,623.00
2024-03-21T05:19:34.562Z,619.00
2024-03-21T05:20:34.599Z,623.00
2024-03-21T05:21:34.701Z,617.00
2024-03-21T05:22:34.737Z,619.00
2024-03-21T05:23:34.794Z,624.00
2024-03-21T05:24:34.857Z,616.00
2024-03-21T05:25:34.901Z,616.00
2024-03-21T05:26:35.000Z,613.00
2024-03-21T05:27:35.022Z,626.00
2024-03-21T05:28:35.113Z,616.00
2024-03-21T05:29:35.178Z,631.00
2024-03-21T05:30:35.218Z,629.00
2024-03-21T05:31:35.311Z,631.00
2024-03-21T05:32:35.340Z,625.00
2024-03-21T05:33:35.440Z,615.00
2024-03-21T05:34:35.489Z,614.00
2024-03-21T05:35:35.528Z,618.00
2024-03-21T05:36:35.604Z,624.00
2024-03-21T05:37:35.662Z,622.00
2024-03-21T05:38:35.727Z,632.00
2024-03-21T05:39:35.794Z,614.00
2024-03-21T05:40:35.832Z,626.00
2024-03-21T05:41:35.917Z,623.00
2024-03-21T05:42:35.947Z,618.00
2024-03-21T05:43:36.030Z,620.00
2024-03-21T05:44:36.144Z,613.00
2024-03-21T05:45:36.156Z,610.00
2024-03-21T05:46:36.251Z,619.00
2024-03-21T05:47:36.273Z,614.00
2024-03-21T05:48:36.318Z,612.00
2024-03-21T05:49:36.382Z,612.00
2024-03-21T05:50:36.440Z,604.00
2024-03-21T05:51:36.514Z,600.00
2024-03-21T05:52:36.548Z,603.00
2024-03-21T05:53:36.667Z,601.00
2024-03-21T05:54:36.702Z,604.00
2024-03-21T05:55:36.752Z,612.00
2024-03-21T05:56:36.829Z,609.00
2024-03-21T05:57:36.871Z,618.00
2024-03-21T05:58:36.909Z,630.00
2024-03-21T05:59:36.974Z,643.00
2024-03-21T06:00:36.975Z,650.00
2024-03-21T06:01:37.050Z,650.00
2024-03-21T06:02:37.189Z,670.00
2024-03-21T06:03:37.120Z,699.00
2024-03-21T06:04:37.148Z,692.00
2024-03-21T06:05:37.172Z,719.00
2024-03-21T06:06:37.201Z,736.00
2024-03-21T06:07:37.223Z,749.00
2024-03-21T06:08:37.272Z,767.00
2024-03-21T06:09:37.287Z,804.00
2024-03-21T06:10:37.320Z,793.00
2024-03-21T06:11:37.335Z,818.00
2024-03-21T06:12:37.376Z,839.00
2024-03-21T06:13:37.356Z,871.00
2024-03-21T06:14:37.396Z,890.00
2024-03-21T06:15:39.880Z,899.00
2024-03-21T06:16:37.553Z,904.00
2024-03-21T06:17:37.583Z,916.00
2024-03-21T06:18:37.597Z,948.00
2024-03-21T06:19:37.605Z,958.00
2024-03-21T06:20:37.651Z,977.00
2024-03-21T06:21:39.289Z,993.00
2024-03-21T06:22:37.628Z,1006.00
2024-03-21T06:23:37.631Z,1024.00
2024-03-21T06:24:37.648Z,1038.00
2024-03-21T06:25:37.657Z,1040.00
2024-03-21T06:26:37.661Z,1085.00
2024-03-21T06:27:37.655Z,1106.00
2024-03-21T06:28:37.665Z,1101.00
2024-03-21T06:29:37.640Z,1099.00
2024-03-21T06:30:37.646Z,1113.00
2024-03-21T06:31:37.642Z,1106.00
2024-03-21T06:32:37.661Z,1109.00
2024-03-21T06:33:37.663Z,1112.00
2024-03-21T06:34:37.670Z,1131.00
2024-03-21T06:35:37.735Z,1138.00
2024-03-21T06:36:37.682Z,1140.00
2024-03-21T06:37:37.644Z,1134.00
2024-03-21T06:38:37.668Z,1101.00
2024-03-21T06:39:37.670Z,1094.00
2024-03-21T06:40:37.653Z,1080.00
2024-03-21T06:41:37.655Z,1092.00
2024-03-21T06:42:37.660Z,1088.00
2024-03-21T06:43:37.672Z,1101.00
2024-03-21T06:44:37.692Z,1096.00
2024-03-21T06:45:37.672Z,1100.00
2024-03-21T06:46:37.691Z,1085.00
2024-03-21T06:47:37.705Z,1093.00
2024-03-21T06:48:37.658Z,1094.00
2024-03-21T06:49:37.692Z,1104.00
2024-03-21T06:50:38.270Z,1122.00
2024-03-21T06:51:37.676Z,1125.00
2024-03-21T06:52:37.677Z,1098.00
2024-03-21T06:53:37.693Z,1120.00
2024-03-21T06:54:37.708Z,1121.00
2024-03-21T06:55:37.697Z,1111.00
2024-03-21T06:56:37.655Z,1102.00
2024-03-21T06:57:37.682Z,1133.00
2024-03-21T06:58:37.683Z,1139.00
2024-03-21T06:59:37.689Z,1171.00
2024-03-21T07:00:37.677Z,1182.00
2024-03-21T07:01:37.699Z,1171.00
2024-03-21T07:02:37.848Z,1165.00
2024-03-21T07:03:37.690Z,1176.00
2024-03-21T07:04:37.698Z,1159.00
2024-03-21T07:05:37.688Z,1201.00
2024-03-21T07:06:37.696Z,1172.00
2024-03-21T07:07:37.691Z,1160.00
2024-03-21T07:08:37.669Z,1209.00
2024-03-21T07:09:37.703Z,1226.00
2024-03-21T07:10:37.723Z,1235.00
2024-03-21T07:11:37.670Z,1252.00
2024-03-21T07:12:37.680Z,1261.00
2024-03-21T07:13:37.698Z,1289.00
2024-03-21T07:14:37.708Z,1297.00
2024-03-21T07:15:37.699Z,1310.00
2024-03-21T07:16:39.119Z,1286.00
2024-03-21T07:17:37.678Z,1324.00
2024-03-21T07:18:37.698Z,1323.00
2024-03-21T07:19:37.706Z,1326.00
2024-03-21T07:20:37.717Z,1331.00
2024-03-21T07:21:37.718Z,1314.00
2024-03-21T07:22:37.695Z,1332.00
2024-03-21T07:23:37.714Z,1335.00
2024-03-21T07:24:37.743Z,1354.00
2024-03-21T07:25:37.708Z,1365.00
2024-03-21T07:26:37.708Z,1350.00
2024-03-21T07:27:37.721Z,1369.00
2024-03-21T07:28:37.729Z,1372.00
2024-03-21T07:29:37.736Z,1373.00
2024-03-21T07:30:37.752Z,1377.00
2024-03-21T07:31:37.714Z,1384.00
2024-03-21T07:32:37.716Z,1362.00
2024-03-21T07:33:37.756Z,1371.00
2024-03-21T07:34:37.736Z,1370.00
2024-03-21T07:35:37.708Z,1355.00
2024-03-21T07:36:37.754Z,1379.00
2024-03-21T07:37:37.758Z,1371.00
2024-03-21T07:38:37.730Z,1386.00
2024-03-21T07:39:37.779Z,1373.00
2024-03-21T07:40:37.754Z,1394.00
2024-03-21T07:41:37.725Z,1416.00
2024-03-21T07:42:37.721Z,1395.00
2024-03-21T07:43:37.743Z,1418.00
2024-03-21T07:44:37.780Z,1410.00
2024-03-21T07:45:37.761Z,1414.00
2024-03-21T07:46:37.742Z,1416.00
2024-03-21T07:47:37.747Z,1422.00
2024-03-21T07:48:37.774Z,1403.00
2024-03-21T07:49:37.731Z,1411.00
2024-03-21T07:50:37.732Z,1452.00
2024-03-21T07:51:37.758Z,1511.00
2024-03-21T07:52:37.760Z,1525.00
2024-03-21T07:53:37.726Z,1566.00
2024-03-21T07:54:37.864Z,1585.00
2024-03-21T07:55:37.771Z,1574.00
2024-03-21T07:56:37.765Z,1577.00
2024-03-21T07:57:37.798Z,1563.00
2024-03-21T07:58:37.743Z,1578.00
2024-03-21T07:59:37.781Z,1570.00
2024-03-21T08:00:37.790Z,1579.00
2024-03-21T08:01:37.753Z,1588.00
2024-03-21T08:02:37.767Z,1589.00
2024-03-21T08:03:37.763Z,1613.00
2024-03-21T08:04:37.765Z,1605.00
2024-03-21T08:05:37.765Z,1599.00
2024-03-21T08:06:37.769Z,1583.00
2024-03-21T08:07:37.806Z,1587.00
2024-03-21T08:08:37.766Z,1589.00
2024-03-21T08:09:37.795Z,1586.00
2024-03-21T08:10:37.832Z,1595.00
2024-03-21T08:11:37.798Z,1592.00
2024-03-21T08:12:37.818Z,1591.00
2024-03-21T08:13:37.790Z,1608.00
2024-03-21T08:14:37.806Z,1591.00
2024-03-21T08:15:37.870Z,1588.00
2024-03-21T08:16:37.872Z,1606.00
2024-03-21T08:17:39.051Z,1607.00
2024-03-21T08:18:37.819Z,1596.00
2024-03-21T08:19:37.784Z,1586.00
2024-03-21T08:20:37.834Z,1583.00
2024-03-21T08:21:37.778Z,1600.00
2024-03-21T08:22:37.777Z,1629.00
2024-03-21T08:23:37.812Z,1613.00
2024-03-21T08:24:37.773Z,1622.00
2024-03-21T08:25:37.822Z,1638.00
2024-03-21T08:26:37.854Z,1644.00
2024-03-21T08:27:37.926Z,1645.00
2024-03-21T08:28:37.936Z,1641.00
2024-03-21T08:29:37.943Z,1640.00
2024-03-21T08:30:38.001Z,1681.00
2024-03-21T08:31:38.018Z,1657.00
2024-03-21T08:32:38.083Z,1685.00
2024-03-21T08:33:38.046Z,1671.00
2024-03-21T08:34:38.106Z,1661.00
2024-03-21T08:35:38.061Z,1678.00
2024-03-21T08:36:38.055Z,1685.00
2024-03-21T08:37:38.053Z,1672.00
2024-03-21T08:38:38.071Z,1670.00
2024-03-21T08:39:38.151Z,1661.00
2024-03-21T08:40:38.101Z,1675.00
2024-03-21T08:41:38.121Z,1689.00
2024-03-21T08:42:38.177Z,1691.00
2024-03-21T08:43:38.230Z,1689.00
2024-03-21T08:44:38.124Z,1691.00
2024-03-21T08:45:38.148Z,1689.00
2024-03-21T08:46:38.182Z,1686.00
2024-03-21T08:47:38.182Z,1667.00
2024-03-21T08:48:38.289Z,1670.00
2024-03-21T08:49:38.244Z,1667.00
2024-03-21T08:50:38.278Z,1635.00
2024-03-21T08:51:38.379Z,1641.00
2024-03-21T08:52:38.339Z,1634.00
2024-03-21T08:53:38.375Z,1632.00
2024-03-21T08:54:38.405Z,1623.00
2024-03-21T08:55:38.457Z,1624.00
2024-03-21T08:56:38.480Z,1637.00
2024-03-21T08:57:38.486Z,1617.00
2024-03-21T08:58:38.525Z,1617.00
2024-03-21T08:59:38.505Z,1614.00
2024-03-21T09:00:38.514Z,1605.00
2024-03-21T09:01:38.528Z,1616.00
2024-03-21T09:02:38.548Z,1630.00
2024-03-21T09:03:38.533Z,1609.00
2024-03-21T09:04:38.570Z,1626.00
2024-03-21T09:05:38.553Z,1619.00
2024-03-21T09:06:38.571Z,1644.00
2024-03-21T09:07:38.597Z,1636.00
2024-03-21T09:08:38.626Z,1624.00
2024-03-21T09:09:38.601Z,1623.00
2024-03-21T09:10:38.594Z,1635.00
2024-03-21T09:11:38.611Z,1628.00
2024-03-21T09:12:38.598Z,1616.00
2024-03-21T09:13:38.666Z,1617.00
2024-03-21T09:14:38.658Z,1613.00
2024-03-21T09:15:38.695Z,1627.00
2024-03-21T09:16:38.726Z,1628.00
2024-03-21T09:17:38.812Z,1630.00
2024-03-21T09:18:39.333Z,1659.00
2024-03-21T09:19:38.856Z,1643.00
2024-03-21T09:20:38.905Z,1632.00
2024-03-21T09:21:38.940Z,1656.00
2024-03-21T09:22:39.003Z,1684.00
2024-03-21T09:23:39.047Z,1638.00
2024-03-21T09:24:39.120Z,1668.00
2024-03-21T09:25:39.299Z,1653.00
2024-03-21T09:26:39.192Z,1639.00
2024-03-21T09:27:39.309Z,1629.00
2024-03-21T09:28:39.357Z,1624.00
2024-03-21T09:29:39.851Z,1651.00
2024-03-21T09:30:39.488Z,1652.00
2024-03-21T09:31:39.543Z,1664.00
2024-03-21T09:32:39.631Z,1641.00
2024-03-21T09:33:39.794Z,1648.00
2024-03-21T09:34:39.746Z,1635.00
2024-03-21T09:35:39.759Z,1662.00
2024-03-21T09:36:39.833Z,1628.00
2024-03-21T09:37:39.821Z,1685.00
2024-03-21T09:38:39.880Z,1692.00
2024-03-21T09:39:39.841Z,1698.00
2024-03-21T09:40:39.880Z,1680.00
2024-03-21T09:41:39.992Z,1687.00
2024-03-21T09:42:40.035Z,1683.00
2024-03-21T09:43:40.184Z,1678.00
2024-03-21T09:44:40.147Z,1688.00
2024-03-21T09:45:40.363Z,1637.00
2024-03-21T09:46:40.331Z,1633.00
2024-03-21T09:47:40.406Z,1605.00
2024-03-21T09:48:41.078Z,1557.00
2024-03-21T09:49:40.522Z,1543.00
2024-03-21T09:50:40.546Z,1552.00
2024-03-21T09:51:41.355Z,1544.00
2024-03-21T09:52:40.684Z,1540.00
2024-03-21T09:53:40.737Z,1527.00
2024-03-21T09:54:40.811Z,1494.00
2024-03-21T09:55:40.854Z,1479.00
2024-03-21T09:56:40.942Z,1470.00
2024-03-21T09:57:40.966Z,1472.00
2024-03-21T09:58:41.036Z,1491.00
2024-03-21T09:59:41.101Z,1499.00
2024-03-21T10:00:41.160Z,1539.00
2024-03-21T10:01:41.234Z,1541.00
2024-03-21T10:02:41.327Z,1555.00
2024-03-21T10:03:41.329Z,1573.00
2024-03-21T10:04:41.389Z,1581.00
2024-03-21T10:05:41.487Z,1594.00
2024-03-21T10:06:41.512Z,1623.00
2024-03-21T10:07:41.593Z,1633.00
2024-03-21T10:08:41.651Z,1627.00
2024-03-21T10:09:41.723Z,1612.00
2024-03-21T10:10:41.800Z,1631.00
2024-03-21T10:11:41.852Z,1612.00
2024-03-21T10:12:41.905Z,1586.00
2024-03-21T10:13:41.947Z,1591.00
2024-03-21T10:14:42.060Z,1615.00
2024-03-21T10:15:42.080Z,1632.00
2024-03-21T10:16:42.152Z,1636.00
2024-03-21T10:17:42.212Z,1635.00
2024-03-21T10:18:42.586Z,1637.00
2024-03-21T10:19:42.345Z,1632.00
2024-03-21T10:20:42.447Z,1620.00
2024-03-21T10:21:42.498Z,1609.00
2024-03-21T10:22:42.570Z,1615.00
2024-03-21T10:23:42.623Z,1612.00
2024-03-21T10:24:42.710Z,1604.00
2024-03-21T10:25:42.753Z,1596.00
2024-03-21T10:26:42.797Z,1598.00
2024-03-21T10:27:42.868Z,1588.00
2024-03-21T10:28:42.891Z,1587.00
2024-03-21T10:29:42.898Z,1568.00
2024-03-21T10:30:42.915Z,1594.00
2024-03-21T10:31:42.983Z,1590.00
2024-03-21T10:32:43.000Z,1594.00
2024-03-21T10:33:43.044Z,1583.00
2024-03-21T10:34:43.148Z,1585.00
2024-03-21T10:35:43.175Z,1574.00
2024-03-21T10:36:43.259Z,1586.00
2024-03-21T10:37:43.293Z,1570.00
2024-03-21T10:38:43.381Z,1565.00
2024-03-21T10:39:43.479Z,1563.00
2024-03-21T10:40:43.534Z,1571.00
2024-03-21T10:41:43.544Z,1571.00
2024-03-21T10:42:43.796Z,1570.00
2024-03-21T10:43:43.591Z,1587.00
2024-03-21T10:44:43.710Z,1587.00
2024-03-21T10:45:43.713Z,1573.00
2024-03-21T10:46:43.763Z,1556.00
2024-03-21T10:47:43.860Z,1552.00
2024-03-21T10:48:43.876Z,1548.00
2024-03-21T10:49:43.981Z,1538.00
2024-03-21T10:50:44.038Z,1538.00
2024-03-21T10:51:44.095Z,1537.00
2024-03-21T10:52:44.146Z,1541.00
2024-03-21T10:53:44.219Z,1500.00
2024-03-21T10:54:44.286Z,1509.00
2024-03-21T10:55:44.371Z,1504.00
2024-03-21T10:56:44.438Z,1481.00
2024-03-21T10:57:44.506Z,1484.00
2024-03-21T10:58:45.682Z,1475.00
2024-03-21T10:59:44.602Z,1458.00
2024-03-21T11:00:44.671Z,1451.00
2024-03-21T11:01:44.837Z,1453.00
2024-03-21T11:02:44.937Z,1436.00
2024-03-21T11:03:44.856Z,1430.00
2024-03-21T11:04:45.012Z,1429.00
2024-03-21T11:05:44.980Z,1425.00
2024-03-21T11:06:45.063Z,1425.00
2024-03-21T11:07:45.115Z,1406.00
2024-03-21T11:08:45.161Z,1397.00
2024-03-21T11:09:45.376Z,1392.00
2024-03-21T11:10:45.337Z,1389.00
2024-03-21T11:11:45.441Z,1375.00
2024-03-21T11:12:45.460Z,1364.00
2024-03-21T11:13:45.631Z,1347.00
2024-03-21T11:14:49.454Z,1320.00
2024-03-21T11:15:45.550Z,1320.00
2024-03-21T11:16:45.538Z,1314.00
2024-03-21T11:17:45.550Z,1312.00
2024-03-21T11:18:45.585Z,1313.00
2024-03-21T11:19:45.692Z,1299.00
2024-03-21T11:20:45.564Z,1307.00
2024-03-21T11:21:45.576Z,1303.00
2024-03-21T11:22:45.550Z,1289.00
2024-03-21T11:23:45.598Z,1282.00
2024-03-21T11:24:45.584Z,1266.00
2024-03-21T11:25:45.632Z,1268.00
2024-03-21T11:26:45.568Z,1266.00
2024-03-21T11:27:45.582Z,1268.00
2024-03-21T11:28:45.574Z,1264.00
2024-03-21T11:29:45.639Z,1251.00
2024-03-21T11:30:45.547Z,1259.00
2024-03-21T11:31:45.562Z,1260.00
2024-03-21T11:32:45.564Z,1254.00
2024-03-21T11:33:45.584Z,1244.00
2024-03-21T11:34:45.619Z,1244.00
2024-03-21T11:35:45.570Z,1207.00
2024-03-21T11:36:47.431Z,1212.00
2024-03-21T11:37:45.568Z,1211.00
2024-03-21T11:38:45.584Z,1211.00
2024-03-21T11:39:45.583Z,1195.00
2024-03-21T11:40:45.636Z,1200.00
2024-03-21T11:41:45.562Z,1190.00
2024-03-21T11:42:45.587Z,1180.00
2024-03-21T11:43:45.573Z,1175.00
2024-03-21T11:44:45.635Z,1171.00
2024-03-21T11:45:45.588Z,1161.00
2024-03-21T11:46:45.616Z,1171.00
2024-03-21T11:47:45.599Z,1169.00
2024-03-21T11:48:45.584Z,1168.00
2024-03-21T11:49:45.593Z,1175.00
2024-03-21T11:50:45.578Z,1169.00
2024-03-21T11:51:45.600Z,1192.00
2024-03-21T11:52:45.593Z,1192.00
2024-03-21T11:53:45.586Z,1207.00
2024-03-21T11:54:46.078Z,1196.00
2024-03-21T11:55:45.602Z,1210.00
2024-03-21T11:56:45.588Z,1186.00
2024-03-21T11:57:45.595Z,1180.00
2024-03-21T11:58:45.615Z,1179.00
2024-03-21T11:59:45.626Z,1177.00
2024-03-21T12:00:47.344Z,1181.00
2024-03-21T12:01:45.589Z,1181.00
2024-03-21T12:02:45.624Z,1183.00
2024-03-21T12:03:45.677Z,1183.00
2024-03-21T12:04:45.624Z,1183.00
2024-03-21T12:05:45.644Z,1193.00
2024-03-21T12:06:46.150Z,1199.00
2024-03-21T12:07:45.681Z,1196.00
2024-03-21T12:08:45.634Z,1202.00
2024-03-21T12:09:45.776Z,1208.00
2024-03-21T12:10:45.837Z,1213.00
2024-03-21T12:11:45.669Z,1226.00
2024-03-21T12:12:46.168Z,1242.00
2024-03-21T12:13:45.667Z,1241.00
2024-03-21T12:14:45.647Z,1238.00
2024-03-21T12:15:45.672Z,1223.00
2024-03-21T12:16:45.705Z,1215.00
2024-03-21T12:17:45.641Z,1196.00